»·PEaware :: N11649 KBUR-KSBD

N11649 :: KBUR-KSBD

FLIGHT INFORMATION

Flight Status: Arrived
Operator: Privately registered:
United States
More flights under this callsign
Pilot: Ke L. (11649)
Aircraft: CESSNA 172 SKYHAWK
(C172)
More flights by this aircraft type
Origin: KBUR Bob Hope-Burbank
United States
Destination: KSBD San Bernardino Intl
United States
More flights between these airports :: More routes between these airports
Route: ELMOO 9 V186 PDZ
File this flight plan on PilotEdge
Remarks:
Altitude:
(Current/Filed)
5,000ft
Speed:
(Current/Filed)
105kts
Departed: 10-Aug-20 08:32 PM
Arrived: 10-Aug-20 09:13 PM
Distance/Time
Traveled:
56nm/0:41
Distance/Time
To Go:
Arrived

Flight Plot

Page will automatically refresh every two minutes.

Flight plan parsing failed; only flown route is shown


Map Options




Map Legend


Flown Route
Filed Route
Departure Airport
Arrival Airport
Navaid (VOR, NDB)
Fix

Horizontal Profiles

Position Reports

Time Latitude Longitude Heading Altitude Ground
Speed
10-Aug-20 20:21 34.196706 -118.352868 179 698ft 0kts
10-Aug-20 20:22 34.196706 -118.352868 179 698ft 0kts
10-Aug-20 20:23 34.196706 -118.352868 179 698ft 0kts
10-Aug-20 20:24 34.196706 -118.352868 179 698ft 0kts
10-Aug-20 20:25 34.196706 -118.352868 179 698ft 0kts
10-Aug-20 20:26 34.197244 -118.352748 279 698ft 10kts
10-Aug-20 20:27 34.199230 -118.355467 346 708ft 19kts
10-Aug-20 20:28 34.205889 -118.357300 345 735ft 28kts
10-Aug-20 20:29 34.211724 -118.359237 310 764ft 0kts
10-Aug-20 20:30 34.211843 -118.360088 247 766ft 15kts
10-Aug-20 20:31 34.198331 -118.356559 160 1189ft 72kts
10-Aug-20 20:32 34.185218 -118.338236 125 2034ft 75kts
10-Aug-20 20:33 34.173730 -118.317430 125 2839ft 75kts
10-Aug-20 20:34 34.165560 -118.293848 112 3596ft 77kts
10-Aug-20 20:35 34.159204 -118.268955 109 4305ft 78kts
10-Aug-20 20:36 34.152628 -118.243733 116 4960ft 79kts
10-Aug-20 20:37 34.142478 -118.215271 112 5133ft 103kts
10-Aug-20 20:38 34.133564 -118.179399 109 5127ft 113kts
10-Aug-20 20:39 34.122204 -118.143320 119 4939ft 111kts
10-Aug-20 20:40 34.108585 -118.111948 124 4918ft 109kts
10-Aug-20 20:41 34.097291 -118.079243 111 4959ft 107kts
10-Aug-20 20:42 34.087503 -118.045170 107 4982ft 107kts
10-Aug-20 20:43 34.078943 -118.010619 115 4999ft 107kts
10-Aug-20 20:44 34.066799 -117.977768 109 5020ft 107kts
10-Aug-20 20:45 34.056205 -117.944176 117 5041ft 107kts
10-Aug-20 20:46 34.044783 -117.911148 107 5061ft 107kts
10-Aug-20 20:47 34.038642 -117.875548 100 5101ft 112kts
10-Aug-20 20:48 34.031736 -117.839971 112 5088ft 114kts
10-Aug-20 20:49 34.020374 -117.803344 111 4958ft 116kts
10-Aug-20 20:50 34.006163 -117.769734 128 4934ft 112kts
10-Aug-20 20:51 33.994912 -117.737542 107 4913ft 113kts
10-Aug-20 20:52 33.984782 -117.703331 118 4883ft 112kts
10-Aug-20 20:53 33.971260 -117.671833 117 4932ft 108kts
10-Aug-20 20:54 33.957472 -117.641887 119 4958ft 109kts
10-Aug-20 20:55 33.946861 -117.610154 110 4993ft 109kts
10-Aug-20 20:56 33.933406 -117.579228 125 5022ft 109kts
10-Aug-20 20:57 33.923720 -117.546558 109 5026ft 110kts
10-Aug-20 20:58 33.921585 -117.514312 45 4907ft 122kts
10-Aug-20 20:59 33.950281 -117.510719 2 4744ft 99kts
10-Aug-20 21:00 33.974446 -117.504207 26 4366ft 92kts
10-Aug-20 21:01 33.996176 -117.492791 23 4053ft 88kts
10-Aug-20 21:02 34.017201 -117.480272 52 3992ft 88kts
10-Aug-20 21:03 34.029481 -117.457225 57 3999ft 84kts
10-Aug-20 21:04 34.038599 -117.431609 77 3937ft 84kts
10-Aug-20 21:05 34.045462 -117.404782 75 3685ft 82kts
10-Aug-20 21:06 34.052390 -117.377919 74 3189ft 84kts
10-Aug-20 21:07 34.059285 -117.351266 74 2716ft 83kts
10-Aug-20 21:08 34.068660 -117.325702 66 2318ft 83kts
10-Aug-20 21:09 34.075920 -117.299575 74 1950ft 82kts
10-Aug-20 21:10 34.083674 -117.273884 70 1549ft 81kts
10-Aug-20 21:11 34.090570 -117.250755 74 1097ft 53kts
10-Aug-20 21:12 34.093029 -117.242522 52 1098ft 13kts

Navigation Log

Ident Type
Flight plan parsing failed, navigation log unavailable